sensor_id;sensor_type;location;lat;lon;timestamp;temperature;humidity
67027;DHT22;53933;52.142;11.738;2022-10-03T00:01:21;23.90;61.50
67027;DHT22;53933;52.142;11.738;2022-10-03T00:04:04;23.90;61.40
67027;DHT22;53933;52.142;11.738;2022-10-03T00:06:43;23.80;61.50
67027;DHT22;53933;52.142;11.738;2022-10-03T00:09:32;23.90;60.50
67027;DHT22;53933;52.142;11.738;2022-10-03T00:12:13;23.90;59.50
67027;DHT22;53933;52.142;11.738;2022-10-03T00:14:47;23.80;59.10
67027;DHT22;53933;52.142;11.738;2022-10-03T00:17:20;23.80;59.40
67027;DHT22;53933;52.142;11.738;2022-10-03T00:19:57;23.70;59.90
67027;DHT22;53933;52.142;11.738;2022-10-03T00:22:33;23.70;59.60
67027;DHT22;53933;52.142;11.738;2022-10-03T00:25:05;23.70;59.50
67027;DHT22;53933;52.142;11.738;2022-10-03T00:27:40;23.60;59.50
67027;DHT22;53933;52.142;11.738;2022-10-03T00:30:15;23.60;59.90
67027;DHT22;53933;52.142;11.738;2022-10-03T00:33:08;23.60;60.40
67027;DHT22;53933;52.142;11.738;2022-10-03T00:35:57;23.50;59.80
67027;DHT22;53933;52.142;11.738;2022-10-03T00:39:02;23.50;60.10
67027;DHT22;53933;52.142;11.738;2022-10-03T00:45:28;23.50;61.00
67027;DHT22;53933;52.142;11.738;2022-10-03T00:48:14;23.40;60.70
67027;DHT22;53933;52.142;11.738;2022-10-03T00:50:59;23.40;60.40
67027;DHT22;53933;52.142;11.738;2022-10-03T00:53:39;23.40;60.00
67027;DHT22;53933;52.142;11.738;2022-10-03T00:56:22;23.40;60.60
67027;DHT22;53933;52.142;11.738;2022-10-03T00:59:02;23.40;60.60
67027;DHT22;53933;52.142;11.738;2022-10-03T01:01:43;23.40;61.20
67027;DHT22;53933;52.142;11.738;2022-10-03T01:04:29;23.30;60.50
67027;DHT22;53933;52.142;11.738;2022-10-03T01:07:07;23.30;60.40
67027;DHT22;53933;52.142;11.738;2022-10-03T01:09:50;23.30;61.20
67027;DHT22;53933;52.142;11.738;2022-10-03T01:15:23;23.10;60.70
67027;DHT22;53933;52.142;11.738;2022-10-03T01:18:04;22.90;61.50
67027;DHT22;53933;52.142;11.738;2022-10-03T01:20:44;22.80;61.70
67027;DHT22;53933;52.142;11.738;2022-10-03T01:26:22;22.60;61.70
67027;DHT22;53933;52.142;11.738;2022-10-03T01:28:53;22.60;61.80
67027;DHT22;53933;52.142;11.738;2022-10-03T01:31:44;22.60;61.70
67027;DHT22;53933;52.142;11.738;2022-10-03T01:34:19;22.50;61.90
67027;DHT22;53933;52.142;11.738;2022-10-03T01:36:55;22.50;61.50
67027;DHT22;53933;52.142;11.738;2022-10-03T01:39:27;22.50;61.90
67027;DHT22;53933;52.142;11.738;2022-10-03T01:42:00;22.40;61.80
67027;DHT22;53933;52.142;11.738;2022-10-03T01:44:38;22.40;61.60
67027;DHT22;53933;52.142;11.738;2022-10-03T01:47:16;22.40;61.90
67027;DHT22;53933;52.142;11.738;2022-10-03T01:49:50;22.40;61.80
67027;DHT22;53933;52.142;11.738;2022-10-03T01:52:24;22.40;61.80
67027;DHT22;53933;52.142;11.738;2022-10-03T01:55:02;22.40;61.90
67027;DHT22;53933;52.142;11.738;2022-10-03T01:57:36;22.40;62.00
67027;DHT22;53933;52.142;11.738;2022-10-03T02:00:10;22.40;61.80
67027;DHT22;53933;52.142;11.738;2022-10-03T02:02:43;22.40;62.00
67027;DHT22;53933;52.142;11.738;2022-10-03T02:05:16;22.30;62.00
67027;DHT22;53933;52.142;11.738;2022-10-03T02:07:51;22.40;62.20
67027;DHT22;53933;52.142;11.738;2022-10-03T02:10:27;22.30;62.40
67027;DHT22;53933;52.142;11.738;2022-10-03T02:13:04;22.40;62.70
67027;DHT22;53933;52.142;11.738;2022-10-03T02:15:43;22.30;62.40
67027;DHT22;53933;52.142;11.738;2022-10-03T02:18:17;22.30;62.20
67027;DHT22;53933;52.142;11.738;2022-10-03T02:20:49;22.30;62.10
67027;DHT22;53933;52.142;11.738;2022-10-03T02:23:37;22.50;63.30
67027;DHT22;53933;52.142;11.738;2022-10-03T02:26:09;22.70;63.40
67027;DHT22;53933;52.142;11.738;2022-10-03T02:29:03;22.80;63.00
67027;DHT22;53933;52.142;11.738;2022-10-03T02:32:02;23.00;62.80
67027;DHT22;53933;52.142;11.738;2022-10-03T02:35:04;23.00;62.40
67027;DHT22;53933;52.142;11.738;2022-10-03T02:37:54;23.10;62.40
67027;DHT22;53933;52.142;11.738;2022-10-03T02:40:34;23.30;62.10
67027;DHT22;53933;52.142;11.738;2022-10-03T02:43:24;23.30;61.80
67027;DHT22;53933;52.142;11.738;2022-10-03T02:46:26;23.30;62.60
67027;DHT22;53933;52.142;11.738;2022-10-03T02:49:28;23.40;61.70
67027;DHT22;53933;52.142;11.738;2022-10-03T02:52:26;23.40;61.30
67027;DHT22;53933;52.142;11.738;2022-10-03T03:04:12;23.60;61.50
67027;DHT22;53933;52.142;11.738;2022-10-03T03:07:08;23.60;61.60
67027;DHT22;53933;52.142;11.738;2022-10-03T03:10:18;23.60;61.60
67027;DHT22;53933;52.142;11.738;2022-10-03T03:13:24;23.60;61.50
67027;DHT22;53933;52.142;11.738;2022-10-03T03:16:38;23.60;61.50
67027;DHT22;53933;52.142;11.738;2022-10-03T03:19:23;23.60;61.20
67027;DHT22;53933;52.142;11.738;2022-10-03T03:22:00;23.60;61.40
67027;DHT22;53933;52.142;11.738;2022-10-03T03:24:43;23.60;61.60
67027;DHT22;53933;52.142;11.738;2022-10-03T03:27:29;23.60;61.60
67027;DHT22;53933;52.142;11.738;2022-10-03T03:30:02;23.70;61.70
67027;DHT22;53933;52.142;11.738;2022-10-03T03:32:43;23.70;61.60
67027;DHT22;53933;52.142;11.738;2022-10-03T03:35:20;23.70;62.50
67027;DHT22;53933;52.142;11.738;2022-10-03T03:37:59;23.70;61.40
67027;DHT22;53933;52.142;11.738;2022-10-03T03:40:38;23.70;61.50
67027;DHT22;53933;52.142;11.738;2022-10-03T03:43:15;23.70;61.50
67027;DHT22;53933;52.142;11.738;2022-10-03T03:45:58;23.70;61.30
67027;DHT22;53933;52.142;11.738;2022-10-03T03:48:37;23.70;61.50
67027;DHT22;53933;52.142;11.738;2022-10-03T03:51:20;23.70;61.60
67027;DHT22;53933;52.142;11.738;2022-10-03T03:54:22;23.70;61.50
67027;DHT22;53933;52.142;11.738;2022-10-03T03:57:10;23.80;61.50
67027;DHT22;53933;52.142;11.738;2022-10-03T04:03:04;23.70;61.50
67027;DHT22;53933;52.142;11.738;2022-10-03T04:05:43;23.80;61.80
67027;DHT22;53933;52.142;11.738;2022-10-03T04:08:25;23.80;61.80
67027;DHT22;53933;52.142;11.738;2022-10-03T04:11:05;23.80;61.70
67027;DHT22;53933;52.142;11.738;2022-10-03T04:14:07;23.80;61.60
67027;DHT22;53933;52.142;11.738;2022-10-03T04:16:48;23.80;61.70
67027;DHT22;53933;52.142;11.738;2022-10-03T04:19:47;23.80;61.60
67027;DHT22;53933;52.142;11.738;2022-10-03T04:22:30;23.80;62.60
67027;DHT22;53933;52.142;11.738;2022-10-03T04:25:20;23.80;61.80
67027;DHT22;53933;52.142;11.738;2022-10-03T04:28:12;23.80;62.10
67027;DHT22;53933;52.142;11.738;2022-10-03T04:30:50;23.80;62.20
67027;DHT22;53933;52.142;11.738;2022-10-03T04:33:30;23.80;62.30
67027;DHT22;53933;52.142;11.738;2022-10-03T04:36:32;23.80;62.50
67027;DHT22;53933;52.142;11.738;2022-10-03T04:39:10;23.80;62.50
67027;DHT22;53933;52.142;11.738;2022-10-03T04:41:44;23.80;62.50
67027;DHT22;53933;52.142;11.738;2022-10-03T04:44:31;23.80;62.40
67027;DHT22;53933;52.142;11.738;2022-10-03T04:47:02;23.80;62.30
67027;DHT22;53933;52.142;11.738;2022-10-03T04:49:37;23.80;62.30
67027;DHT22;53933;52.142;11.738;2022-10-03T04:52:17;23.80;62.30
67027;DHT22;53933;52.142;11.738;2022-10-03T04:54:53;23.80;62.50
67027;DHT22;53933;52.142;11.738;2022-10-03T04:57:29;23.80;62.50
67027;DHT22;53933;52.142;11.738;2022-10-03T05:00:04;23.80;62.40
67027;DHT22;53933;52.142;11.738;2022-10-03T05:02:48;23.80;62.30
67027;DHT22;53933;52.142;11.738;2022-10-03T05:05:33;23.80;62.40
67027;DHT22;53933;52.142;11.738;2022-10-03T05:08:15;23.80;62.20
67027;DHT22;53933;52.142;11.738;2022-10-03T05:11:00;23.80;62.10
67027;DHT22;53933;52.142;11.738;2022-10-03T05:13:43;23.80;62.10
67027;DHT22;53933;52.142;11.738;2022-10-03T05:16:22;23.80;62.10
67027;DHT22;53933;52.142;11.738;2022-10-03T05:19:07;23.80;62.00
67027;DHT22;53933;52.142;11.738;2022-10-03T05:21:38;23.80;62.20
67027;DHT22;53933;52.142;11.738;2022-10-03T05:24:17;23.80;62.30
67027;DHT22;53933;52.142;11.738;2022-10-03T05:26:52;23.80;62.10
67027;DHT22;53933;52.142;11.738;2022-10-03T05:29:31;23.80;62.60
67027;DHT22;53933;52.142;11.738;2022-10-03T05:32:15;23.80;62.50
67027;DHT22;53933;52.142;11.738;2022-10-03T05:35:01;23.80;62.50
67027;DHT22;53933;52.142;11.738;2022-10-03T05:37:53;23.80;62.40
67027;DHT22;53933;52.142;11.738;2022-10-03T05:40:25;23.80;62.10
67027;DHT22;53933;52.142;11.738;2022-10-03T05:43:01;23.80;62.50
67027;DHT22;53933;52.142;11.738;2022-10-03T05:45:35;23.80;62.60
67027;DHT22;53933;52.142;11.738;2022-10-03T05:48:13;23.90;62.50
67027;DHT22;53933;52.142;11.738;2022-10-03T05:54:12;23.80;62.60
67027;DHT22;53933;52.142;11.738;2022-10-03T05:57:04;23.80;62.60
67027;DHT22;53933;52.142;11.738;2022-10-03T06:00:01;23.90;62.70
67027;DHT22;53933;52.142;11.738;2022-10-03T06:02:50;23.90;62.60
67027;DHT22;53933;52.142;11.738;2022-10-03T06:05:28;23.80;62.80
67027;DHT22;53933;52.142;11.738;2022-10-03T06:08:16;23.80;62.90
67027;DHT22;53933;52.142;11.738;2022-10-03T06:10:52;23.80;63.10
67027;DHT22;53933;52.142;11.738;2022-10-03T06:13:36;23.90;62.90
67027;DHT22;53933;52.142;11.738;2022-10-03T06:16:21;23.80;63.30
67027;DHT22;53933;52.142;11.738;2022-10-03T06:19:15;23.90;63.40
67027;DHT22;53933;52.142;11.738;2022-10-03T06:28:18;23.90;63.60
67027;DHT22;53933;52.142;11.738;2022-10-03T06:31:09;23.90;63.40
67027;DHT22;53933;52.142;11.738;2022-10-03T06:49:54;23.90;63.30
67027;DHT22;53933;52.142;11.738;2022-10-03T06:52:54;23.90;63.40
67027;DHT22;53933;52.142;11.738;2022-10-03T06:55:44;23.90;63.60
67027;DHT22;53933;52.142;11.738;2022-10-03T07:01:55;24.00;63.90
67027;DHT22;53933;52.142;11.738;2022-10-03T07:04:53;24.00;63.90
67027;DHT22;53933;52.142;11.738;2022-10-03T07:10:41;24.00;64.80
67027;DHT22;53933;52.142;11.738;2022-10-03T07:20:04;23.90;61.50
67027;DHT22;53933;52.142;11.738;2022-10-03T07:22:53;23.80;61.50
67027;DHT22;53933;52.142;11.738;2022-10-03T07:28:59;23.80;61.80
67027;DHT22;53933;52.142;11.738;2022-10-03T07:31:38;23.80;62.00
67027;DHT22;53933;52.142;11.738;2022-10-03T07:34:24;23.80;62.40
67027;DHT22;53933;52.142;11.738;2022-10-03T07:37:13;23.80;62.80
67027;DHT22;53933;52.142;11.738;2022-10-03T07:40:15;23.80;63.00
67027;DHT22;53933;52.142;11.738;2022-10-03T07:43:18;23.90;63.20
67027;DHT22;53933;52.142;11.738;2022-10-03T07:46:13;24.00;62.50
67027;DHT22;53933;52.142;11.738;2022-10-03T07:49:07;24.00;62.40
67027;DHT22;53933;52.142;11.738;2022-10-03T07:51:41;24.00;62.40
67027;DHT22;53933;52.142;11.738;2022-10-03T07:54:33;24.00;62.20
67027;DHT22;53933;52.142;11.738;2022-10-03T08:00:19;23.80;62.10
67027;DHT22;53933;52.142;11.738;2022-10-03T08:06:15;23.80;62.70
67027;DHT22;53933;52.142;11.738;2022-10-03T08:14:55;24.30;62.00
67027;DHT22;53933;52.142;11.738;2022-10-03T08:17:55;24.50;60.80
67027;DHT22;53933;52.142;11.738;2022-10-03T08:20:35;24.50;61.10
67027;DHT22;53933;52.142;11.738;2022-10-03T08:23:40;24.60;60.80
67027;DHT22;53933;52.142;11.738;2022-10-03T08:26:16;24.70;59.90
67027;DHT22;53933;52.142;11.738;2022-10-03T08:29:15;24.80;59.70
67027;DHT22;53933;52.142;11.738;2022-10-03T08:32:33;24.90;59.80
67027;DHT22;53933;52.142;11.738;2022-10-03T08:38:39;25.10;58.80
67027;DHT22;53933;52.142;11.738;2022-10-03T08:44:46;25.40;57.30
67027;DHT22;53933;52.142;11.738;2022-10-03T08:47:38;25.50;57.20
67027;DHT22;53933;52.142;11.738;2022-10-03T08:50:31;25.70;56.50
67027;DHT22;53933;52.142;11.738;2022-10-03T08:53:33;25.80;55.80
67027;DHT22;53933;52.142;11.738;2022-10-03T08:56:09;26.10;55.70
67027;DHT22;53933;52.142;11.738;2022-10-03T08:59:05;25.90;55.60
67027;DHT22;53933;52.142;11.738;2022-10-03T09:05:04;26.40;55.00
67027;DHT22;53933;52.142;11.738;2022-10-03T09:08:02;26.70;54.30
67027;DHT22;53933;52.142;11.738;2022-10-03T09:10:45;26.90;53.60
67027;DHT22;53933;52.142;11.738;2022-10-03T09:13:50;27.00;53.40
67027;DHT22;53933;52.142;11.738;2022-10-03T09:19:36;26.80;53.90
67027;DHT22;53933;52.142;11.738;2022-10-03T09:25:22;26.80;53.60
67027;DHT22;53933;52.142;11.738;2022-10-03T09:31:11;26.20;54.80
67027;DHT22;53933;52.142;11.738;2022-10-03T09:34:11;26.00;55.40
67027;DHT22;53933;52.142;11.738;2022-10-03T09:37:18;25.90;55.70
67027;DHT22;53933;52.142;11.738;2022-10-03T09:43:23;26.60;54.80
67027;DHT22;53933;52.142;11.738;2022-10-03T09:46:24;27.10;53.80
67027;DHT22;53933;52.142;11.738;2022-10-03T09:49:28;27.40;53.10
67027;DHT22;53933;52.142;11.738;2022-10-03T09:52:08;27.20;53.00
67027;DHT22;53933;52.142;11.738;2022-10-03T09:54:52;26.80;53.80
67027;DHT22;53933;52.142;11.738;2022-10-03T09:57:40;26.50;54.70
67027;DHT22;53933;52.142;11.738;2022-10-03T10:00:16;26.30;55.10
67027;DHT22;53933;52.142;11.738;2022-10-03T10:06:20;26.10;55.60
67027;DHT22;53933;52.142;11.738;2022-10-03T10:15:17;25.80;56.60
67027;DHT22;53933;52.142;11.738;2022-10-03T10:18:26;25.80;56.60
67027;DHT22;53933;52.142;11.738;2022-10-03T10:24:22;26.00;56.50
67027;DHT22;53933;52.142;11.738;2022-10-03T10:30:23;26.20;55.60
67027;DHT22;53933;52.142;11.738;2022-10-03T10:36:37;25.90;56.40
67027;DHT22;53933;52.142;11.738;2022-10-03T10:39:30;26.00;56.10
67027;DHT22;53933;52.142;11.738;2022-10-03T10:45:28;25.80;56.50
67027;DHT22;53933;52.142;11.738;2022-10-03T10:48:38;25.60;56.70
67027;DHT22;53933;52.142;11.738;2022-10-03T10:54:46;25.50;57.00
67027;DHT22;53933;52.142;11.738;2022-10-03T10:57:25;25.40;57.30
67027;DHT22;53933;52.142;11.738;2022-10-03T11:00:15;25.40;57.60
67027;DHT22;53933;52.142;11.738;2022-10-03T11:06:31;25.30;57.60
67027;DHT22;53933;52.142;11.738;2022-10-03T11:09:26;25.10;57.60
67027;DHT22;53933;52.142;11.738;2022-10-03T11:12:25;25.10;58.00
67027;DHT22;53933;52.142;11.738;2022-10-03T11:18:29;25.00;58.20
67027;DHT22;53933;52.142;11.738;2022-10-03T11:21:37;24.90;58.30
67027;DHT22;53933;52.142;11.738;2022-10-03T11:27:43;24.90;58.40
67027;DHT22;53933;52.142;11.738;2022-10-03T11:30:29;24.90;58.30
67027;DHT22;53933;52.142;11.738;2022-10-03T11:33:29;25.00;58.30
67027;DHT22;53933;52.142;11.738;2022-10-03T11:36:29;25.00;58.30
67027;DHT22;53933;52.142;11.738;2022-10-03T11:39:03;25.00;58.30
67027;DHT22;53933;52.142;11.738;2022-10-03T11:41:39;25.00;58.40
67027;DHT22;53933;52.142;11.738;2022-10-03T11:44:19;24.90;58.30
67027;DHT22;53933;52.142;11.738;2022-10-03T11:46:56;24.90;58.40
67027;DHT22;53933;52.142;11.738;2022-10-03T11:49:38;24.90;58.50
67027;DHT22;53933;52.142;11.738;2022-10-03T11:52:21;24.90;58.50
67027;DHT22;53933;52.142;11.738;2022-10-03T11:54:55;24.90;59.20
67027;DHT22;53933;52.142;11.738;2022-10-03T11:57:29;24.90;58.40
67027;DHT22;53933;52.142;11.738;2022-10-03T12:00:03;24.90;58.40
67027;DHT22;53933;52.142;11.738;2022-10-03T12:02:47;24.90;58.80
67027;DHT22;53933;52.142;11.738;2022-10-03T12:05:23;24.90;58.90
67027;DHT22;53933;52.142;11.738;2022-10-03T12:07:58;25.00;58.50
67027;DHT22;53933;52.142;11.738;2022-10-03T12:10:55;25.00;58.60
67027;DHT22;53933;52.142;11.738;2022-10-03T12:13:32;25.00;58.60
67027;DHT22;53933;52.142;11.738;2022-10-03T12:16:05;24.90;58.90
67027;DHT22;53933;52.142;11.738;2022-10-03T12:18:51;24.80;58.80
67027;DHT22;53933;52.142;11.738;2022-10-03T12:21:25;24.80;59.20
67027;DHT22;53933;52.142;11.738;2022-10-03T12:24:03;24.90;59.10
67027;DHT22;53933;52.142;11.738;2022-10-03T12:26:45;25.00;59.00
67027;DHT22;53933;52.142;11.738;2022-10-03T12:29:15;25.10;58.80
67027;DHT22;53933;52.142;11.738;2022-10-03T12:31:52;25.20;58.50
67027;DHT22;53933;52.142;11.738;2022-10-03T12:34:38;25.30;58.30
67027;DHT22;53933;52.142;11.738;2022-10-03T12:37:19;25.40;58.10
67027;DHT22;53933;52.142;11.738;2022-10-03T12:40:03;25.40;57.90
67027;DHT22;53933;52.142;11.738;2022-10-03T12:42:34;25.50;57.80
67027;DHT22;53933;52.142;11.738;2022-10-03T12:45:07;25.60;57.80
67027;DHT22;53933;52.142;11.738;2022-10-03T12:47:51;25.60;57.70
67027;DHT22;53933;52.142;11.738;2022-10-03T12:50:33;25.60;57.70
67027;DHT22;53933;52.142;11.738;2022-10-03T12:56:12;25.70;57.60
67027;DHT22;53933;52.142;11.738;2022-10-03T12:58:50;25.60;57.50
67027;DHT22;53933;52.142;11.738;2022-10-03T13:01:27;25.60;57.60
67027;DHT22;53933;52.142;11.738;2022-10-03T13:04:01;25.60;57.60
67027;DHT22;53933;52.142;11.738;2022-10-03T13:06:50;25.60;57.70
67027;DHT22;53933;52.142;11.738;2022-10-03T13:09:28;25.50;57.60
67027;DHT22;53933;52.142;11.738;2022-10-03T13:12:06;25.50;57.70
67027;DHT22;53933;52.142;11.738;2022-10-03T13:14:44;25.50;57.90
67027;DHT22;53933;52.142;11.738;2022-10-03T13:17:37;25.40;57.90
67027;DHT22;53933;52.142;11.738;2022-10-03T13:20:18;25.40;57.90
67027;DHT22;53933;52.142;11.738;2022-10-03T13:22:58;25.40;57.90
67027;DHT22;53933;52.142;11.738;2022-10-03T13:25:34;25.40;57.90
67027;DHT22;53933;52.142;11.738;2022-10-03T13:28:08;25.40;57.90
67027;DHT22;53933;52.142;11.738;2022-10-03T13:30:45;25.50;57.90
67027;DHT22;53933;52.142;11.738;2022-10-03T13:33:15;25.40;57.90
67027;DHT22;53933;52.142;11.738;2022-10-03T13:35:47;25.50;57.90
67027;DHT22;53933;52.142;11.738;2022-10-03T13:38:43;25.50;57.90
67027;DHT22;53933;52.142;11.738;2022-10-03T13:41:21;25.50;57.80
67027;DHT22;53933;52.142;11.738;2022-10-03T13:43:55;25.50;57.80
67027;DHT22;53933;52.142;11.738;2022-10-03T13:46:28;25.60;57.90
67027;DHT22;53933;52.142;11.738;2022-10-03T13:48:58;25.60;57.80
67027;DHT22;53933;52.142;11.738;2022-10-03T13:51:33;25.50;57.90
67027;DHT22;53933;52.142;11.738;2022-10-03T13:54:06;25.60;57.90
67027;DHT22;53933;52.142;11.738;2022-10-03T13:56:42;25.50;57.90
67027;DHT22;53933;52.142;11.738;2022-10-03T13:59:43;25.50;57.90
67027;DHT22;53933;52.142;11.738;2022-10-03T14:02:37;25.50;58.00
67027;DHT22;53933;52.142;11.738;2022-10-03T14:08:23;25.40;58.00
67027;DHT22;53933;52.142;11.738;2022-10-03T14:11:09;25.40;58.00
67027;DHT22;53933;52.142;11.738;2022-10-03T14:13:49;25.40;58.10
67027;DHT22;53933;52.142;11.738;2022-10-03T14:16:24;25.40;58.20
67027;DHT22;53933;52.142;11.738;2022-10-03T14:18:57;25.40;58.20
67027;DHT22;53933;52.142;11.738;2022-10-03T14:21:43;25.40;58.20
67027;DHT22;53933;52.142;11.738;2022-10-03T14:24:19;25.30;58.20
67027;DHT22;53933;52.142;11.738;2022-10-03T14:26:56;25.30;58.20
67027;DHT22;53933;52.142;11.738;2022-10-03T14:29:33;25.30;58.30
67027;DHT22;53933;52.142;11.738;2022-10-03T14:32:07;25.20;58.30
67027;DHT22;53933;52.142;11.738;2022-10-03T14:34:47;25.20;58.30
67027;DHT22;53933;52.142;11.738;2022-10-03T14:37:23;25.20;58.40
67027;DHT22;53933;52.142;11.738;2022-10-03T14:40:02;25.20;58.40
67027;DHT22;53933;52.142;11.738;2022-10-03T14:42:42;25.20;58.50
67027;DHT22;53933;52.142;11.738;2022-10-03T14:45:13;25.20;58.50
67027;DHT22;53933;52.142;11.738;2022-10-03T14:47:46;25.10;58.40
67027;DHT22;53933;52.142;11.738;2022-10-03T14:50:16;25.10;58.50
67027;DHT22;53933;52.142;11.738;2022-10-03T14:52:45;25.10;58.50
67027;DHT22;53933;52.142;11.738;2022-10-03T14:55:18;25.10;58.50
67027;DHT22;53933;52.142;11.738;2022-10-03T14:57:48;25.00;58.50
67027;DHT22;53933;52.142;11.738;2022-10-03T15:00:33;25.10;58.70
67027;DHT22;53933;52.142;11.738;2022-10-03T15:03:19;25.00;58.60
67027;DHT22;53933;52.142;11.738;2022-10-03T15:05:56;25.00;58.70
67027;DHT22;53933;52.142;11.738;2022-10-03T15:08:29;25.00;58.60
67027;DHT22;53933;52.142;11.738;2022-10-03T15:10:59;25.00;58.60
67027;DHT22;53933;52.142;11.738;2022-10-03T15:13:32;25.00;58.60
67027;DHT22;53933;52.142;11.738;2022-10-03T15:16:01;25.00;58.60
67027;DHT22;53933;52.142;11.738;2022-10-03T15:18:29;25.00;58.60
67027;DHT22;53933;52.142;11.738;2022-10-03T15:20:56;25.00;58.60
67027;DHT22;53933;52.142;11.738;2022-10-03T15:23:26;25.00;58.70
67027;DHT22;53933;52.142;11.738;2022-10-03T15:25:55;25.00;58.60
67027;DHT22;53933;52.142;11.738;2022-10-03T15:28:27;25.00;58.60
67027;DHT22;53933;52.142;11.738;2022-10-03T15:30:56;25.00;58.70
67027;DHT22;53933;52.142;11.738;2022-10-03T15:33:34;25.00;59.40
67027;DHT22;53933;52.142;11.738;2022-10-03T15:36:08;25.00;58.70
67027;DHT22;53933;52.142;11.738;2022-10-03T15:38:38;25.00;58.70
67027;DHT22;53933;52.142;11.738;2022-10-03T15:41:08;25.00;58.70
67027;DHT22;53933;52.142;11.738;2022-10-03T15:43:44;25.00;58.70
67027;DHT22;53933;52.142;11.738;2022-10-03T15:46:28;25.00;58.70
67027;DHT22;53933;52.142;11.738;2022-10-03T15:48:58;25.00;58.70
67027;DHT22;53933;52.142;11.738;2022-10-03T15:51:27;24.90;59.40
67027;DHT22;53933;52.142;11.738;2022-10-03T15:53:58;24.90;58.70
67027;DHT22;53933;52.142;11.738;2022-10-03T15:56:31;24.90;58.70
67027;DHT22;53933;52.142;11.738;2022-10-03T15:59:04;24.90;58.70
67027;DHT22;53933;52.142;11.738;2022-10-03T16:01:33;24.90;58.70
67027;DHT22;53933;52.142;11.738;2022-10-03T16:04:03;24.90;58.70
67027;DHT22;53933;52.142;11.738;2022-10-03T16:06:37;24.90;58.80
67027;DHT22;53933;52.142;11.738;2022-10-03T16:09:12;24.80;58.80
67027;DHT22;53933;52.142;11.738;2022-10-03T16:11:47;24.80;58.80
67027;DHT22;53933;52.142;11.738;2022-10-03T16:14:22;24.80;58.80
67027;DHT22;53933;52.142;11.738;2022-10-03T16:16:52;24.80;58.90
67027;DHT22;53933;52.142;11.738;2022-10-03T16:19:26;24.80;59.00
67027;DHT22;53933;52.142;11.738;2022-10-03T16:22:09;24.80;59.00
67027;DHT22;53933;52.142;11.738;2022-10-03T16:24:42;24.70;58.90
67027;DHT22;53933;52.142;11.738;2022-10-03T16:27:14;24.70;59.00
67027;DHT22;53933;52.142;11.738;2022-10-03T16:29:51;24.70;59.10
67027;DHT22;53933;52.142;11.738;2022-10-03T16:32:21;24.70;59.10
67027;DHT22;53933;52.142;11.738;2022-10-03T16:34:49;24.70;59.10
67027;DHT22;53933;52.142;11.738;2022-10-03T16:37:18;24.70;59.10
67027;DHT22;53933;52.142;11.738;2022-10-03T16:39:53;24.70;59.10
67027;DHT22;53933;52.142;11.738;2022-10-03T16:42:23;24.70;59.10
67027;DHT22;53933;52.142;11.738;2022-10-03T16:44:54;24.70;59.20
67027;DHT22;53933;52.142;11.738;2022-10-03T16:47:32;24.60;59.10
67027;DHT22;53933;52.142;11.738;2022-10-03T16:50:01;24.60;59.10
67027;DHT22;53933;52.142;11.738;2022-10-03T16:52:47;24.60;59.20
67027;DHT22;53933;52.142;11.738;2022-10-03T16:55:17;24.60;59.20
67027;DHT22;53933;52.142;11.738;2022-10-03T16:57:50;24.60;59.20
67027;DHT22;53933;52.142;11.738;2022-10-03T17:00:23;24.60;59.20
67027;DHT22;53933;52.142;11.738;2022-10-03T17:02:53;24.60;59.20
67027;DHT22;53933;52.142;11.738;2022-10-03T17:05:21;24.60;59.20
67027;DHT22;53933;52.142;11.738;2022-10-03T17:07:50;24.60;59.20
67027;DHT22;53933;52.142;11.738;2022-10-03T17:10:31;24.50;59.20
67027;DHT22;53933;52.142;11.738;2022-10-03T17:13:02;24.50;59.20
67027;DHT22;53933;52.142;11.738;2022-10-03T17:15:33;24.50;59.20
67027;DHT22;53933;52.142;11.738;2022-10-03T17:18:17;24.50;59.30
67027;DHT22;53933;52.142;11.738;2022-10-03T17:20:47;24.50;59.20
67027;DHT22;53933;52.142;11.738;2022-10-03T17:23:28;24.50;59.30
67027;DHT22;53933;52.142;11.738;2022-10-03T17:26:01;24.50;59.30
67027;DHT22;53933;52.142;11.738;2022-10-03T17:28:39;24.50;59.30
67027;DHT22;53933;52.142;11.738;2022-10-03T17:31:22;24.50;59.30
67027;DHT22;53933;52.142;11.738;2022-10-03T17:33:53;24.50;59.30
67027;DHT22;53933;52.142;11.738;2022-10-03T17:36:50;24.50;59.30
67027;DHT22;53933;52.142;11.738;2022-10-03T17:39:36;24.50;59.30
67027;DHT22;53933;52.142;11.738;2022-10-03T17:42:09;24.50;59.40
67027;DHT22;53933;52.142;11.738;2022-10-03T17:44:51;24.50;59.40
67027;DHT22;53933;52.142;11.738;2022-10-03T17:47:23;24.50;59.40
67027;DHT22;53933;52.142;11.738;2022-10-03T17:49:59;24.40;59.40
67027;DHT22;53933;52.142;11.738;2022-10-03T17:52:28;24.40;59.40
67027;DHT22;53933;52.142;11.738;2022-10-03T17:54:56;24.40;59.40
67027;DHT22;53933;52.142;11.738;2022-10-03T17:57:28;24.40;59.40
67027;DHT22;53933;52.142;11.738;2022-10-03T17:59:59;24.40;59.70
67027;DHT22;53933;52.142;11.738;2022-10-03T18:02:38;24.40;59.40
67027;DHT22;53933;52.142;11.738;2022-10-03T18:05:13;24.40;59.40
67027;DHT22;53933;52.142;11.738;2022-10-03T18:07:42;24.40;59.40
67027;DHT22;53933;52.142;11.738;2022-10-03T18:10:21;24.40;59.40
67027;DHT22;53933;52.142;11.738;2022-10-03T18:12:51;24.40;59.40
67027;DHT22;53933;52.142;11.738;2022-10-03T18:18:35;24.40;59.50
67027;DHT22;53933;52.142;11.738;2022-10-03T18:21:15;24.40;59.40
67027;DHT22;53933;52.142;11.738;2022-10-03T18:23:57;24.40;59.40
67027;DHT22;53933;52.142;11.738;2022-10-03T18:26:38;24.40;59.40
67027;DHT22;53933;52.142;11.738;2022-10-03T18:29:15;24.40;59.40
67027;DHT22;53933;52.142;11.738;2022-10-03T18:31:50;24.30;59.30
67027;DHT22;53933;52.142;11.738;2022-10-03T18:34:24;24.40;59.40
67027;DHT22;53933;52.142;11.738;2022-10-03T18:36:53;24.40;59.40
67027;DHT22;53933;52.142;11.738;2022-10-03T18:39:23;24.30;59.40
67027;DHT22;53933;52.142;11.738;2022-10-03T18:41:52;24.30;59.40
67027;DHT22;53933;52.142;11.738;2022-10-03T18:44:21;24.30;59.40
67027;DHT22;53933;52.142;11.738;2022-10-03T18:46:53;24.30;59.30
67027;DHT22;53933;52.142;11.738;2022-10-03T18:49:25;24.30;59.40
67027;DHT22;53933;52.142;11.738;2022-10-03T18:51:56;24.30;59.40
67027;DHT22;53933;52.142;11.738;2022-10-03T18:54:33;24.30;59.40
67027;DHT22;53933;52.142;11.738;2022-10-03T18:57:07;24.30;59.40
67027;DHT22;53933;52.142;11.738;2022-10-03T18:59:46;24.30;59.40
67027;DHT22;53933;52.142;11.738;2022-10-03T19:02:22;24.30;59.40
67027;DHT22;53933;52.142;11.738;2022-10-03T19:04:51;24.30;59.40